Terminal Aerodrome Forecast
Issued by NWS Louisville, KY

Home | Current Version | Previous Version | Text Only | Print | Product List | Glossary On
Versions: 1 2 3 4 5 6 7 8 9 10 11 12
000
FTUS43 KLMK 280500
TAFLEX
TAF
KLEX 280520Z 2806/2906 VRB03KT P6SM BKN200
     FM281500 VRB04KT P6SM BKN060 BKN200=

USA.gov is the U.S. government's official web portal to all federal, state and local government web resources and services.